sensor_id;sensor_type;location;lat;lon;timestamp;P1;durP1;ratioP1;P2;durP2;ratioP2
27265;SDS011;14766;51.380;13.762;2023-12-28T00:02:20;4.60;;;2.40;;
27265;SDS011;14766;51.380;13.762;2023-12-28T00:04:47;5.22;;;2.50;;
27265;SDS011;14766;51.380;13.762;2023-12-28T00:07:14;3.58;;;2.05;;
27265;SDS011;14766;51.380;13.762;2023-12-28T00:09:41;4.97;;;2.25;;
27265;SDS011;14766;51.380;13.762;2023-12-28T00:12:08;5.88;;;2.65;;
27265;SDS011;14766;51.380;13.762;2023-12-28T00:14:37;6.25;;;2.22;;
27265;SDS011;14766;51.380;13.762;2023-12-28T00:17:05;5.32;;;3.00;;
27265;SDS011;14766;51.380;13.762;2023-12-28T00:19:32;5.30;;;2.92;;
27265;SDS011;14766;51.380;13.762;2023-12-28T00:21:59;4.32;;;2.50;;
27265;SDS011;14766;51.380;13.762;2023-12-28T00:24:26;3.88;;;2.10;;
27265;SDS011;14766;51.380;13.762;2023-12-28T00:26:54;5.22;;;2.70;;
27265;SDS011;14766;51.380;13.762;2023-12-28T00:29:22;2.67;;;1.80;;
27265;SDS011;14766;51.380;13.762;2023-12-28T00:31:50;3.85;;;1.77;;
27265;SDS011;14766;51.380;13.762;2023-12-28T00:34:17;4.22;;;1.88;;
27265;SDS011;14766;51.380;13.762;2023-12-28T00:36:44;3.47;;;1.83;;
27265;SDS011;14766;51.380;13.762;2023-12-28T00:39:11;3.67;;;2.03;;
27265;SDS011;14766;51.380;13.762;2023-12-28T00:41:38;3.40;;;1.75;;
27265;SDS011;14766;51.380;13.762;2023-12-28T00:44:05;2.80;;;1.60;;
27265;SDS011;14766;51.380;13.762;2023-12-28T00:46:36;3.25;;;1.50;;
27265;SDS011;14766;51.380;13.762;2023-12-28T00:49:04;3.72;;;1.77;;
27265;SDS011;14766;51.380;13.762;2023-12-28T00:51:33;3.40;;;1.67;;
27265;SDS011;14766;51.380;13.762;2023-12-28T00:54:00;3.28;;;1.60;;
27265;SDS011;14766;51.380;13.762;2023-12-28T00:56:27;2.97;;;1.30;;
27265;SDS011;14766;51.380;13.762;2023-12-28T00:58:54;3.75;;;1.50;;
27265;SDS011;14766;51.380;13.762;2023-12-28T01:01:21;3.38;;;1.40;;
27265;SDS011;14766;51.380;13.762;2023-12-28T01:03:49;2.53;;;1.30;;
27265;SDS011;14766;51.380;13.762;2023-12-28T01:06:16;4.93;;;1.55;;
27265;SDS011;14766;51.380;13.762;2023-12-28T01:08:44;2.78;;;1.40;;
27265;SDS011;14766;51.380;13.762;2023-12-28T01:11:11;3.33;;;1.95;;
27265;SDS011;14766;51.380;13.762;2023-12-28T01:13:39;3.22;;;1.60;;
27265;SDS011;14766;51.380;13.762;2023-12-28T01:16:08;3.15;;;1.95;;
27265;SDS011;14766;51.380;13.762;2023-12-28T01:18:35;3.45;;;1.90;;
27265;SDS011;14766;51.380;13.762;2023-12-28T01:21:02;3.83;;;2.00;;
27265;SDS011;14766;51.380;13.762;2023-12-28T01:23:30;3.42;;;1.65;;
27265;SDS011;14766;51.380;13.762;2023-12-28T01:25:58;2.25;;;1.40;;
27265;SDS011;14766;51.380;13.762;2023-12-28T01:28:26;3.13;;;1.48;;
27265;SDS011;14766;51.380;13.762;2023-12-28T01:30:53;4.13;;;1.75;;
27265;SDS011;14766;51.380;13.762;2023-12-28T01:33:21;2.50;;;1.25;;
27265;SDS011;14766;51.380;13.762;2023-12-28T01:35:48;3.95;;;1.90;;
27265;SDS011;14766;51.380;13.762;2023-12-28T01:38:15;4.38;;;1.50;;
27265;SDS011;14766;51.380;13.762;2023-12-28T01:40:45;3.85;;;1.92;;
27265;SDS011;14766;51.380;13.762;2023-12-28T01:43:13;3.08;;;1.58;;
27265;SDS011;14766;51.380;13.762;2023-12-28T01:45:41;3.55;;;1.50;;
27265;SDS011;14766;51.380;13.762;2023-12-28T01:48:08;2.45;;;1.40;;
27265;SDS011;14766;51.380;13.762;2023-12-28T01:50:37;2.40;;;1.52;;
27265;SDS011;14766;51.380;13.762;2023-12-28T01:53:04;2.70;;;1.40;;
27265;SDS011;14766;51.380;13.762;2023-12-28T01:55:33;2.65;;;1.40;;
27265;SDS011;14766;51.380;13.762;2023-12-28T01:58:00;2.10;;;1.30;;
27265;SDS011;14766;51.380;13.762;2023-12-28T02:00:28;4.60;;;1.55;;
27265;SDS011;14766;51.380;13.762;2023-12-28T02:02:58;2.60;;;1.50;;
27265;SDS011;14766;51.380;13.762;2023-12-28T02:05:26;2.22;;;1.30;;
27265;SDS011;14766;51.380;13.762;2023-12-28T02:07:54;2.50;;;1.30;;
27265;SDS011;14766;51.380;13.762;2023-12-28T02:10:45;2.13;;;1.15;;
27265;SDS011;14766;51.380;13.762;2023-12-28T02:13:12;2.75;;;1.30;;
27265;SDS011;14766;51.380;13.762;2023-12-28T02:15:40;2.38;;;1.50;;
27265;SDS011;14766;51.380;13.762;2023-12-28T02:18:11;3.10;;;1.20;;
27265;SDS011;14766;51.380;13.762;2023-12-28T02:20:42;2.38;;;1.23;;
27265;SDS011;14766;51.380;13.762;2023-12-28T02:23:11;2.13;;;1.00;;
27265;SDS011;14766;51.380;13.762;2023-12-28T02:25:38;1.98;;;1.33;;
27265;SDS011;14766;51.380;13.762;2023-12-28T02:28:06;2.10;;;1.23;;
27265;SDS011;14766;51.380;13.762;2023-12-28T02:30:33;2.40;;;1.35;;
27265;SDS011;14766;51.380;13.762;2023-12-28T02:35:52;2.67;;;1.15;;
27265;SDS011;14766;51.380;13.762;2023-12-28T02:38:25;1.85;;;1.30;;
27265;SDS011;14766;51.380;13.762;2023-12-28T02:40:56;1.80;;;1.30;;
27265;SDS011;14766;51.380;13.762;2023-12-28T02:43:25;2.72;;;1.38;;
27265;SDS011;14766;51.380;13.762;2023-12-28T02:45:52;3.38;;;1.17;;
27265;SDS011;14766;51.380;13.762;2023-12-28T02:48:20;2.15;;;1.15;;
27265;SDS011;14766;51.380;13.762;2023-12-28T02:50:48;2.50;;;1.50;;
27265;SDS011;14766;51.380;13.762;2023-12-28T02:53:15;2.53;;;1.30;;
27265;SDS011;14766;51.380;13.762;2023-12-28T02:55:42;1.20;;;0.80;;
27265;SDS011;14766;51.380;13.762;2023-12-28T02:58:09;2.00;;;1.10;;
27265;SDS011;14766;51.380;13.762;2023-12-28T03:00:37;1.77;;;1.00;;
27265;SDS011;14766;51.380;13.762;2023-12-28T03:03:04;1.52;;;1.15;;
27265;SDS011;14766;51.380;13.762;2023-12-28T03:05:31;0.80;;;0.80;;
27265;SDS011;14766;51.380;13.762;2023-12-28T03:07:58;2.08;;;1.13;;
27265;SDS011;14766;51.380;13.762;2023-12-28T03:10:26;1.25;;;0.80;;
27265;SDS011;14766;51.380;13.762;2023-12-28T03:12:53;1.75;;;1.00;;
27265;SDS011;14766;51.380;13.762;2023-12-28T03:15:22;1.27;;;1.02;;
27265;SDS011;14766;51.380;13.762;2023-12-28T03:17:49;2.97;;;1.00;;
27265;SDS011;14766;51.380;13.762;2023-12-28T03:20:16;1.08;;;0.90;;
27265;SDS011;14766;51.380;13.762;2023-12-28T03:22:43;1.98;;;0.80;;
27265;SDS011;14766;51.380;13.762;2023-12-28T03:25:11;1.38;;;0.85;;
27265;SDS011;14766;51.380;13.762;2023-12-28T03:27:38;1.85;;;1.00;;
27265;SDS011;14766;51.380;13.762;2023-12-28T03:30:07;2.88;;;1.10;;
27265;SDS011;14766;51.380;13.762;2023-12-28T03:32:35;1.83;;;0.93;;
27265;SDS011;14766;51.380;13.762;2023-12-28T03:35:03;1.10;;;0.90;;
27265;SDS011;14766;51.380;13.762;2023-12-28T03:37:30;1.27;;;1.00;;
27265;SDS011;14766;51.380;13.762;2023-12-28T03:39:57;2.72;;;1.02;;
27265;SDS011;14766;51.380;13.762;2023-12-28T03:42:25;1.50;;;1.00;;
27265;SDS011;14766;51.380;13.762;2023-12-28T03:44:55;1.67;;;1.10;;
27265;SDS011;14766;51.380;13.762;2023-12-28T03:47:22;1.38;;;1.10;;
27265;SDS011;14766;51.380;13.762;2023-12-28T03:49:51;2.75;;;1.27;;
27265;SDS011;14766;51.380;13.762;2023-12-28T03:52:18;1.67;;;0.90;;
27265;SDS011;14766;51.380;13.762;2023-12-28T03:54:45;1.30;;;0.98;;
27265;SDS011;14766;51.380;13.762;2023-12-28T03:57:12;3.65;;;1.17;;
27265;SDS011;14766;51.380;13.762;2023-12-28T03:59:39;1.77;;;0.93;;
27265;SDS011;14766;51.380;13.762;2023-12-28T04:02:08;1.23;;;0.80;;
27265;SDS011;14766;51.380;13.762;2023-12-28T04:04:35;1.77;;;1.35;;
27265;SDS011;14766;51.380;13.762;2023-12-28T04:07:03;1.60;;;1.00;;
27265;SDS011;14766;51.380;13.762;2023-12-28T04:09:33;2.25;;;1.10;;
27265;SDS011;14766;51.380;13.762;2023-12-28T04:12:01;2.08;;;1.00;;
27265;SDS011;14766;51.380;13.762;2023-12-28T04:14:28;1.98;;;1.10;;
27265;SDS011;14766;51.380;13.762;2023-12-28T04:16:55;1.90;;;0.90;;
27265;SDS011;14766;51.380;13.762;2023-12-28T04:19:22;1.75;;;0.93;;
27265;SDS011;14766;51.380;13.762;2023-12-28T04:21:49;1.48;;;1.00;;
27265;SDS011;14766;51.380;13.762;2023-12-28T04:24:16;1.65;;;1.02;;
27265;SDS011;14766;51.380;13.762;2023-12-28T04:26:43;3.33;;;1.02;;
27265;SDS011;14766;51.380;13.762;2023-12-28T04:29:11;1.98;;;1.15;;
27265;SDS011;14766;51.380;13.762;2023-12-28T04:31:41;2.72;;;1.30;;
27265;SDS011;14766;51.380;13.762;2023-12-28T04:34:08;2.15;;;1.25;;
27265;SDS011;14766;51.380;13.762;2023-12-28T04:36:42;1.90;;;1.17;;
27265;SDS011;14766;51.380;13.762;2023-12-28T04:39:11;1.50;;;1.35;;
27265;SDS011;14766;51.380;13.762;2023-12-28T04:41:39;1.20;;;1.00;;
27265;SDS011;14766;51.380;13.762;2023-12-28T04:44:06;2.08;;;1.25;;
27265;SDS011;14766;51.380;13.762;2023-12-28T04:46:37;1.40;;;0.95;;
27265;SDS011;14766;51.380;13.762;2023-12-28T04:49:07;1.17;;;1.08;;
27265;SDS011;14766;51.380;13.762;2023-12-28T04:51:41;1.35;;;1.00;;
27265;SDS011;14766;51.380;13.762;2023-12-28T04:54:09;1.35;;;0.95;;
27265;SDS011;14766;51.380;13.762;2023-12-28T04:56:36;1.90;;;1.15;;
27265;SDS011;14766;51.380;13.762;2023-12-28T04:59:03;1.15;;;0.90;;
27265;SDS011;14766;51.380;13.762;2023-12-28T05:01:31;1.95;;;1.25;;
27265;SDS011;14766;51.380;13.762;2023-12-28T05:06:51;1.90;;;1.30;;
27265;SDS011;14766;51.380;13.762;2023-12-28T05:09:19;3.08;;;1.40;;
27265;SDS011;14766;51.380;13.762;2023-12-28T05:11:46;1.58;;;1.08;;
27265;SDS011;14766;51.380;13.762;2023-12-28T05:14:13;1.80;;;1.05;;
27265;SDS011;14766;51.380;13.762;2023-12-28T05:16:40;1.83;;;1.20;;
27265;SDS011;14766;51.380;13.762;2023-12-28T05:19:08;2.38;;;1.10;;
27265;SDS011;14766;51.380;13.762;2023-12-28T05:21:36;1.20;;;1.05;;
27265;SDS011;14766;51.380;13.762;2023-12-28T05:24:03;1.42;;;1.02;;
27265;SDS011;14766;51.380;13.762;2023-12-28T05:26:31;2.25;;;1.05;;
27265;SDS011;14766;51.380;13.762;2023-12-28T05:28:58;1.65;;;1.27;;
27265;SDS011;14766;51.380;13.762;2023-12-28T05:31:25;2.00;;;1.10;;
27265;SDS011;14766;51.380;13.762;2023-12-28T05:33:53;1.52;;;1.20;;
27265;SDS011;14766;51.380;13.762;2023-12-28T05:36:20;2.28;;;1.08;;
27265;SDS011;14766;51.380;13.762;2023-12-28T05:38:47;1.80;;;1.10;;
27265;SDS011;14766;51.380;13.762;2023-12-28T05:41:14;3.88;;;1.00;;
27265;SDS011;14766;51.380;13.762;2023-12-28T05:43:42;1.50;;;1.20;;
27265;SDS011;14766;51.380;13.762;2023-12-28T05:46:09;1.48;;;1.13;;
27265;SDS011;14766;51.380;13.762;2023-12-28T05:48:36;2.65;;;1.27;;
27265;SDS011;14766;51.380;13.762;2023-12-28T05:51:03;2.53;;;1.50;;
27265;SDS011;14766;51.380;13.762;2023-12-28T05:53:31;2.00;;;1.20;;
27265;SDS011;14766;51.380;13.762;2023-12-28T05:55:58;1.83;;;1.20;;
27265;SDS011;14766;51.380;13.762;2023-12-28T05:58:29;2.90;;;1.38;;
27265;SDS011;14766;51.380;13.762;2023-12-28T06:00:56;1.85;;;1.35;;
27265;SDS011;14766;51.380;13.762;2023-12-28T06:03:23;2.38;;;1.45;;
27265;SDS011;14766;51.380;13.762;2023-12-28T06:05:54;4.30;;;1.60;;
27265;SDS011;14766;51.380;13.762;2023-12-28T06:08:22;2.30;;;1.58;;
27265;SDS011;14766;51.380;13.762;2023-12-28T06:10:53;4.13;;;1.77;;
27265;SDS011;14766;51.380;13.762;2023-12-28T06:13:20;3.58;;;2.22;;
27265;SDS011;14766;51.380;13.762;2023-12-28T06:15:47;1.95;;;1.42;;
27265;SDS011;14766;51.380;13.762;2023-12-28T06:18:14;3.60;;;2.00;;
27265;SDS011;14766;51.380;13.762;2023-12-28T06:20:41;3.08;;;1.30;;
27265;SDS011;14766;51.380;13.762;2023-12-28T06:23:09;2.40;;;1.67;;
27265;SDS011;14766;51.380;13.762;2023-12-28T06:25:36;7.60;;;3.10;;
27265;SDS011;14766;51.380;13.762;2023-12-28T06:28:03;4.07;;;2.17;;
27265;SDS011;14766;51.380;13.762;2023-12-28T06:30:30;3.72;;;1.77;;
27265;SDS011;14766;51.380;13.762;2023-12-28T06:32:57;4.32;;;2.35;;
27265;SDS011;14766;51.380;13.762;2023-12-28T06:35:24;3.35;;;1.67;;
27265;SDS011;14766;51.380;13.762;2023-12-28T06:37:51;3.03;;;1.90;;
27265;SDS011;14766;51.380;13.762;2023-12-28T06:40:18;4.22;;;2.17;;
27265;SDS011;14766;51.380;13.762;2023-12-28T06:42:46;4.78;;;2.22;;
27265;SDS011;14766;51.380;13.762;2023-12-28T06:45:14;4.97;;;1.98;;
27265;SDS011;14766;51.380;13.762;2023-12-28T06:47:41;4.50;;;2.35;;
27265;SDS011;14766;51.380;13.762;2023-12-28T06:50:08;3.58;;;1.98;;
27265;SDS011;14766;51.380;13.762;2023-12-28T06:52:36;3.08;;;2.05;;
27265;SDS011;14766;51.380;13.762;2023-12-28T06:55:03;3.03;;;1.90;;
27265;SDS011;14766;51.380;13.762;2023-12-28T06:57:31;3.47;;;2.15;;
27265;SDS011;14766;51.380;13.762;2023-12-28T06:59:58;4.63;;;2.17;;
27265;SDS011;14766;51.380;13.762;2023-12-28T07:02:28;3.65;;;1.85;;
27265;SDS011;14766;51.380;13.762;2023-12-28T07:04:55;2.33;;;1.58;;
27265;SDS011;14766;51.380;13.762;2023-12-28T07:07:22;2.88;;;1.70;;
27265;SDS011;14766;51.380;13.762;2023-12-28T07:09:49;3.08;;;1.80;;
27265;SDS011;14766;51.380;13.762;2023-12-28T07:12:17;3.38;;;1.77;;
27265;SDS011;14766;51.380;13.762;2023-12-28T07:17:42;3.70;;;2.47;;
27265;SDS011;14766;51.380;13.762;2023-12-28T07:20:11;4.35;;;2.33;;
27265;SDS011;14766;51.380;13.762;2023-12-28T07:22:38;3.00;;;2.20;;
27265;SDS011;14766;51.380;13.762;2023-12-28T07:25:05;3.50;;;2.22;;
27265;SDS011;14766;51.380;13.762;2023-12-28T07:27:36;3.58;;;2.50;;
27265;SDS011;14766;51.380;13.762;2023-12-28T07:30:03;3.50;;;2.72;;
27265;SDS011;14766;51.380;13.762;2023-12-28T07:32:31;2.72;;;1.90;;
27265;SDS011;14766;51.380;13.762;2023-12-28T07:34:59;3.75;;;1.92;;
27265;SDS011;14766;51.380;13.762;2023-12-28T07:37:26;5.53;;;3.03;;
27265;SDS011;14766;51.380;13.762;2023-12-28T07:39:53;3.47;;;1.90;;
27265;SDS011;14766;51.380;13.762;2023-12-28T07:42:21;2.53;;;1.65;;
27265;SDS011;14766;51.380;13.762;2023-12-28T07:44:48;2.05;;;1.45;;
27265;SDS011;14766;51.380;13.762;2023-12-28T07:47:15;3.50;;;2.00;;
27265;SDS011;14766;51.380;13.762;2023-12-28T07:49:43;3.95;;;2.60;;
27265;SDS011;14766;51.380;13.762;2023-12-28T07:52:10;3.53;;;2.13;;
27265;SDS011;14766;51.380;13.762;2023-12-28T07:54:44;4.68;;;2.10;;
27265;SDS011;14766;51.380;13.762;2023-12-28T07:57:11;3.72;;;2.20;;
27265;SDS011;14766;51.380;13.762;2023-12-28T07:59:38;4.05;;;2.35;;
27265;SDS011;14766;51.380;13.762;2023-12-28T08:02:05;3.10;;;2.13;;
27265;SDS011;14766;51.380;13.762;2023-12-28T08:04:32;3.60;;;2.28;;
27265;SDS011;14766;51.380;13.762;2023-12-28T08:06:59;3.00;;;1.98;;
27265;SDS011;14766;51.380;13.762;2023-12-28T08:09:27;4.07;;;1.90;;
27265;SDS011;14766;51.380;13.762;2023-12-28T08:11:54;4.03;;;2.22;;
27265;SDS011;14766;51.380;13.762;2023-12-28T08:14:22;3.20;;;2.25;;
27265;SDS011;14766;51.380;13.762;2023-12-28T08:16:49;2.78;;;1.83;;
27265;SDS011;14766;51.380;13.762;2023-12-28T08:19:16;3.30;;;2.30;;
27265;SDS011;14766;51.380;13.762;2023-12-28T08:21:43;3.30;;;2.63;;
27265;SDS011;14766;51.380;13.762;2023-12-28T08:24:10;3.50;;;2.25;;
27265;SDS011;14766;51.380;13.762;2023-12-28T08:26:38;2.60;;;1.88;;
27265;SDS011;14766;51.380;13.762;2023-12-28T08:29:07;3.30;;;2.00;;
27265;SDS011;14766;51.380;13.762;2023-12-28T08:31:34;3.25;;;2.30;;
27265;SDS011;14766;51.380;13.762;2023-12-28T08:34:01;3.63;;;2.30;;
27265;SDS011;14766;51.380;13.762;2023-12-28T08:36:29;3.55;;;2.17;;
27265;SDS011;14766;51.380;13.762;2023-12-28T08:38:56;3.53;;;2.20;;
27265;SDS011;14766;51.380;13.762;2023-12-28T08:41:23;3.20;;;2.05;;
27265;SDS011;14766;51.380;13.762;2023-12-28T08:43:50;3.22;;;1.77;;
27265;SDS011;14766;51.380;13.762;2023-12-28T08:46:18;2.83;;;1.70;;
27265;SDS011;14766;51.380;13.762;2023-12-28T08:48:45;3.33;;;1.80;;
27265;SDS011;14766;51.380;13.762;2023-12-28T08:51:13;2.83;;;2.00;;
27265;SDS011;14766;51.380;13.762;2023-12-28T08:53:41;2.97;;;2.03;;
27265;SDS011;14766;51.380;13.762;2023-12-28T08:56:21;4.82;;;3.28;;
27265;SDS011;14766;51.380;13.762;2023-12-28T08:58:49;3.80;;;2.20;;
27265;SDS011;14766;51.380;13.762;2023-12-28T09:01:19;4.15;;;2.35;;
27265;SDS011;14766;51.380;13.762;2023-12-28T09:03:52;3.47;;;2.33;;
27265;SDS011;14766;51.380;13.762;2023-12-28T09:06:23;4.45;;;2.25;;
27265;SDS011;14766;51.380;13.762;2023-12-28T09:08:51;3.42;;;2.30;;
27265;SDS011;14766;51.380;13.762;2023-12-28T09:11:19;5.60;;;2.33;;
27265;SDS011;14766;51.380;13.762;2023-12-28T09:13:46;3.33;;;2.08;;
27265;SDS011;14766;51.380;13.762;2023-12-28T09:16:14;5.35;;;2.85;;
27265;SDS011;14766;51.380;13.762;2023-12-28T09:18:41;4.43;;;2.55;;
27265;SDS011;14766;51.380;13.762;2023-12-28T09:21:09;5.45;;;3.17;;
27265;SDS011;14766;51.380;13.762;2023-12-28T09:23:37;3.80;;;2.45;;
27265;SDS011;14766;51.380;13.762;2023-12-28T09:26:05;5.15;;;2.60;;
27265;SDS011;14766;51.380;13.762;2023-12-28T09:28:33;3.03;;;2.20;;
27265;SDS011;14766;51.380;13.762;2023-12-28T09:31:03;4.88;;;2.63;;
27265;SDS011;14766;51.380;13.762;2023-12-28T09:33:31;4.03;;;2.45;;
27265;SDS011;14766;51.380;13.762;2023-12-28T09:35:58;4.15;;;2.80;;
27265;SDS011;14766;51.380;13.762;2023-12-28T09:38:26;4.32;;;2.20;;
27265;SDS011;14766;51.380;13.762;2023-12-28T09:40:54;4.43;;;2.15;;
27265;SDS011;14766;51.380;13.762;2023-12-28T09:43:25;3.80;;;2.22;;
27265;SDS011;14766;51.380;13.762;2023-12-28T09:45:56;4.25;;;2.38;;
27265;SDS011;14766;51.380;13.762;2023-12-28T09:48:23;5.55;;;3.60;;
27265;SDS011;14766;51.380;13.762;2023-12-28T09:50:51;4.13;;;2.80;;
27265;SDS011;14766;51.380;13.762;2023-12-28T09:53:24;3.80;;;2.63;;
27265;SDS011;14766;51.380;13.762;2023-12-28T09:55:52;4.90;;;2.50;;
27265;SDS011;14766;51.380;13.762;2023-12-28T09:58:20;5.57;;;3.30;;
27265;SDS011;14766;51.380;13.762;2023-12-28T10:00:49;5.72;;;3.53;;
27265;SDS011;14766;51.380;13.762;2023-12-28T10:03:17;3.63;;;2.33;;
27265;SDS011;14766;51.380;13.762;2023-12-28T10:05:46;3.65;;;2.22;;
27265;SDS011;14766;51.380;13.762;2023-12-28T10:08:14;2.40;;;2.00;;
27265;SDS011;14766;51.380;13.762;2023-12-28T10:10:43;2.97;;;2.00;;
27265;SDS011;14766;51.380;13.762;2023-12-28T10:13:17;2.92;;;2.03;;
27265;SDS011;14766;51.380;13.762;2023-12-28T10:15:45;4.25;;;1.95;;
27265;SDS011;14766;51.380;13.762;2023-12-28T10:18:12;3.53;;;2.08;;
27265;SDS011;14766;51.380;13.762;2023-12-28T10:20:42;2.85;;;2.03;;
27265;SDS011;14766;51.380;13.762;2023-12-28T10:23:14;4.57;;;2.63;;
27265;SDS011;14766;51.380;13.762;2023-12-28T10:25:41;3.78;;;2.50;;
27265;SDS011;14766;51.380;13.762;2023-12-28T10:28:09;3.50;;;2.03;;
27265;SDS011;14766;51.380;13.762;2023-12-28T10:30:38;4.70;;;2.75;;
27265;SDS011;14766;51.380;13.762;2023-12-28T10:33:09;4.75;;;2.85;;
27265;SDS011;14766;51.380;13.762;2023-12-28T10:35:36;3.72;;;2.38;;
27265;SDS011;14766;51.380;13.762;2023-12-28T10:38:04;4.63;;;2.40;;
27265;SDS011;14766;51.380;13.762;2023-12-28T10:40:34;6.40;;;2.88;;
27265;SDS011;14766;51.380;13.762;2023-12-28T10:43:06;4.97;;;2.20;;
27265;SDS011;14766;51.380;13.762;2023-12-28T10:45:35;3.65;;;2.40;;
27265;SDS011;14766;51.380;13.762;2023-12-28T10:48:06;4.00;;;2.58;;
27265;SDS011;14766;51.380;13.762;2023-12-28T10:50:41;8.10;;;3.42;;
27265;SDS011;14766;51.380;13.762;2023-12-28T11:03:58;5.63;;;2.80;;
27265;SDS011;14766;51.380;13.762;2023-12-28T11:06:48;4.13;;;2.20;;
27265;SDS011;14766;51.380;13.762;2023-12-28T11:09:16;3.13;;;2.08;;
27265;SDS011;14766;51.380;13.762;2023-12-28T11:11:45;2.45;;;2.00;;
27265;SDS011;14766;51.380;13.762;2023-12-28T11:14:13;9.35;;;4.95;;
27265;SDS011;14766;51.380;13.762;2023-12-28T11:16:42;14.27;;;6.35;;
27265;SDS011;14766;51.380;13.762;2023-12-28T11:19:10;9.48;;;5.10;;
27265;SDS011;14766;51.380;13.762;2023-12-28T11:21:38;5.93;;;4.13;;
27265;SDS011;14766;51.380;13.762;2023-12-28T11:24:06;6.55;;;5.00;;
27265;SDS011;14766;51.380;13.762;2023-12-28T11:26:33;4.28;;;2.85;;
27265;SDS011;14766;51.380;13.762;2023-12-28T11:29:04;2.70;;;2.50;;
27265;SDS011;14766;51.380;13.762;2023-12-28T11:31:34;4.38;;;2.88;;
27265;SDS011;14766;51.380;13.762;2023-12-28T11:34:03;3.08;;;2.25;;
27265;SDS011;14766;51.380;13.762;2023-12-28T11:36:40;3.10;;;2.60;;
27265;SDS011;14766;51.380;13.762;2023-12-28T11:39:13;3.63;;;2.47;;
27265;SDS011;14766;51.380;13.762;2023-12-28T11:42:01;4.57;;;2.97;;
27265;SDS011;14766;51.380;13.762;2023-12-28T11:44:36;5.32;;;2.70;;
27265;SDS011;14766;51.380;13.762;2023-12-28T11:47:15;2.92;;;2.20;;
27265;SDS011;14766;51.380;13.762;2023-12-28T11:49:43;2.70;;;1.65;;
27265;SDS011;14766;51.380;13.762;2023-12-28T11:52:24;5.18;;;2.15;;
27265;SDS011;14766;51.380;13.762;2023-12-28T11:54:57;2.70;;;2.00;;
27265;SDS011;14766;51.380;13.762;2023-12-28T11:57:26;3.80;;;2.75;;
27265;SDS011;14766;51.380;13.762;2023-12-28T11:59:57;4.35;;;2.15;;
27265;SDS011;14766;51.380;13.762;2023-12-28T12:02:26;2.97;;;1.67;;
27265;SDS011;14766;51.380;13.762;2023-12-28T12:04:54;3.47;;;2.35;;
27265;SDS011;14766;51.380;13.762;2023-12-28T12:07:23;2.53;;;1.98;;
27265;SDS011;14766;51.380;13.762;2023-12-28T12:09:55;2.40;;;2.20;;
27265;SDS011;14766;51.380;13.762;2023-12-28T12:12:26;3.88;;;2.13;;
27265;SDS011;14766;51.380;13.762;2023-12-28T12:14:54;3.28;;;1.80;;
27265;SDS011;14766;51.380;13.762;2023-12-28T12:17:23;3.10;;;1.73;;
27265;SDS011;14766;51.380;13.762;2023-12-28T12:19:51;4.00;;;1.95;;
27265;SDS011;14766;51.380;13.762;2023-12-28T12:22:22;2.53;;;1.70;;
27265;SDS011;14766;51.380;13.762;2023-12-28T12:24:53;12.63;;;6.72;;
27265;SDS011;14766;51.380;13.762;2023-12-28T12:27:24;6.28;;;4.38;;
27265;SDS011;14766;51.380;13.762;2023-12-28T12:29:51;3.90;;;2.60;;
27265;SDS011;14766;51.380;13.762;2023-12-28T12:32:19;4.18;;;2.28;;
27265;SDS011;14766;51.380;13.762;2023-12-28T12:34:46;5.00;;;2.33;;
27265;SDS011;14766;51.380;13.762;2023-12-28T12:37:14;2.67;;;1.67;;
27265;SDS011;14766;51.380;13.762;2023-12-28T12:39:41;3.33;;;1.73;;
27265;SDS011;14766;51.380;13.762;2023-12-28T12:42:11;3.20;;;2.03;;
27265;SDS011;14766;51.380;13.762;2023-12-28T12:44:42;2.75;;;1.60;;
27265;SDS011;14766;51.380;13.762;2023-12-28T12:47:09;2.03;;;1.40;;
27265;SDS011;14766;51.380;13.762;2023-12-28T12:49:37;2.33;;;1.50;;
27265;SDS011;14766;51.380;13.762;2023-12-28T12:52:04;4.07;;;2.15;;
27265;SDS011;14766;51.380;13.762;2023-12-28T12:54:33;2.60;;;1.95;;
27265;SDS011;14766;51.380;13.762;2023-12-28T12:57:00;3.70;;;2.00;;
27265;SDS011;14766;51.380;13.762;2023-12-28T12:59:29;3.15;;;1.80;;
27265;SDS011;14766;51.380;13.762;2023-12-28T13:01:57;2.20;;;1.70;;
27265;SDS011;14766;51.380;13.762;2023-12-28T13:04:25;3.17;;;1.90;;
27265;SDS011;14766;51.380;13.762;2023-12-28T13:06:54;3.33;;;1.73;;
27265;SDS011;14766;51.380;13.762;2023-12-28T13:09:23;2.65;;;1.98;;
27265;SDS011;14766;51.380;13.762;2023-12-28T13:11:51;2.33;;;1.77;;
27265;SDS011;14766;51.380;13.762;2023-12-28T13:14:18;1.88;;;1.52;;
27265;SDS011;14766;51.380;13.762;2023-12-28T13:16:47;2.30;;;1.80;;
27265;SDS011;14766;51.380;13.762;2023-12-28T13:19:24;2.97;;;1.52;;
27265;SDS011;14766;51.380;13.762;2023-12-28T13:21:52;2.20;;;1.58;;
27265;SDS011;14766;51.380;13.762;2023-12-28T13:24:19;1.63;;;1.50;;
27265;SDS011;14766;51.380;13.762;2023-12-28T13:26:46;4.03;;;1.92;;
27265;SDS011;14766;51.380;13.762;2023-12-28T13:29:14;4.30;;;1.58;;
27265;SDS011;14766;51.380;13.762;2023-12-28T13:31:41;2.60;;;2.00;;
27265;SDS011;14766;51.380;13.762;2023-12-28T13:34:11;3.30;;;2.05;;
27265;SDS011;14766;51.380;13.762;2023-12-28T13:36:39;3.45;;;2.10;;
27265;SDS011;14766;51.380;13.762;2023-12-28T13:39:06;3.30;;;2.35;;
27265;SDS011;14766;51.380;13.762;2023-12-28T13:41:35;9.35;;;4.35;;
27265;SDS011;14766;51.380;13.762;2023-12-28T13:44:02;4.35;;;2.35;;
27265;SDS011;14766;51.380;13.762;2023-12-28T13:46:30;2.95;;;1.90;;
27265;SDS011;14766;51.380;13.762;2023-12-28T13:48:58;3.97;;;1.70;;
27265;SDS011;14766;51.380;13.762;2023-12-28T13:51:25;2.63;;;2.00;;
27265;SDS011;14766;51.380;13.762;2023-12-28T13:53:54;2.95;;;2.17;;
27265;SDS011;14766;51.380;13.762;2023-12-28T13:56:21;6.82;;;4.50;;
27265;SDS011;14766;51.380;13.762;2023-12-28T13:58:49;3.58;;;2.80;;
27265;SDS011;14766;51.380;13.762;2023-12-28T14:01:16;3.78;;;2.30;;
27265;SDS011;14766;51.380;13.762;2023-12-28T14:03:44;2.30;;;1.88;;
27265;SDS011;14766;51.380;13.762;2023-12-28T14:06:12;2.70;;;1.73;;
27265;SDS011;14766;51.380;13.762;2023-12-28T14:08:39;3.05;;;1.90;;
27265;SDS011;14766;51.380;13.762;2023-12-28T14:11:07;3.70;;;1.80;;
27265;SDS011;14766;51.380;13.762;2023-12-28T14:13:35;2.42;;;1.80;;
27265;SDS011;14766;51.380;13.762;2023-12-28T14:16:03;2.88;;;1.95;;
27265;SDS011;14766;51.380;13.762;2023-12-28T14:18:31;3.00;;;2.35;;
27265;SDS011;14766;51.380;13.762;2023-12-28T14:20:59;2.65;;;2.40;;
27265;SDS011;14766;51.380;13.762;2023-12-28T14:23:27;3.38;;;2.08;;
27265;SDS011;14766;51.380;13.762;2023-12-28T14:25:54;3.83;;;2.00;;
27265;SDS011;14766;51.380;13.762;2023-12-28T14:28:22;3.00;;;2.05;;
27265;SDS011;14766;51.380;13.762;2023-12-28T14:30:56;2.33;;;1.80;;
27265;SDS011;14766;51.380;13.762;2023-12-28T14:33:23;3.10;;;1.92;;
27265;SDS011;14766;51.380;13.762;2023-12-28T14:35:53;2.80;;;1.70;;
27265;SDS011;14766;51.380;13.762;2023-12-28T14:38:21;2.65;;;1.85;;
27265;SDS011;14766;51.380;13.762;2023-12-28T14:40:47;2.00;;;1.75;;
27265;SDS011;14766;51.380;13.762;2023-12-28T14:43:18;2.20;;;2.00;;
27265;SDS011;14766;51.380;13.762;2023-12-28T14:45:44;4.32;;;3.35;;
27265;SDS011;14766;51.380;13.762;2023-12-28T14:48:13;3.63;;;2.35;;
27265;SDS011;14766;51.380;13.762;2023-12-28T14:50:41;2.88;;;1.83;;
27265;SDS011;14766;51.380;13.762;2023-12-28T14:53:08;1.98;;;1.63;;
27265;SDS011;14766;51.380;13.762;2023-12-28T14:55:37;3.40;;;1.80;;
27265;SDS011;14766;51.380;13.762;2023-12-28T14:58:04;2.47;;;2.00;;
27265;SDS011;14766;51.380;13.762;2023-12-28T15:00:31;2.95;;;1.80;;